Becket Corners, Massachusetts
Current Conditions -  °F | °C
As of 3:54 AM on Friday 24 Oct 2014 (Local Time) from KPSF Reporting Station
Light Rain Light Rain  
Wind Chill: 36°   Ceiling: 1400
Heat Index: 43°   Visibility: 10mi
Dew Point: 41°   Wind: 13mph
Humidity: 93%   Direction: 310°NW
Pressure: 29.75"   Gusts: 21mph
Location:  42.3623°N, 73.1505°W
Report Text: KPSF 240754Z AUTO 31011G18KT 10SM -RA OVC014 06/05 A2975 RMK AO2 RAE0658B26 SLP072 P0001 T00610050
Loading
Personal Weather Stations






























Interactive Weather Map
Tropical Storm Tracking
New forecast layout! Learn more

10-Day Weather Forecast

Advertisements
Track Severe Weather on mobile